sensor_id;sensor_type;location;lat;lon;timestamp;pressure;altitude;pressure_sealevel;temperature;humidity
9110;BME280;4590;51.462;6.692;2024-03-23T05:30:14;100685.22;;;8.52;72.73
9110;BME280;4590;51.462;6.692;2024-03-23T05:32:39;100694.56;;;8.51;72.86
9110;BME280;4590;51.462;6.692;2024-03-23T05:35:06;100690.22;;;8.50;72.48
9110;BME280;4590;51.462;6.692;2024-03-23T05:37:32;100683.91;;;8.49;72.75
9110;BME280;4590;51.462;6.692;2024-03-23T05:39:59;100689.06;;;8.51;72.93
9110;BME280;4590;51.462;6.692;2024-03-23T05:42:24;100696.47;;;8.50;72.85
9110;BME280;4590;51.462;6.692;2024-03-23T05:44:49;100686.31;;;8.51;72.87
9110;BME280;4590;51.462;6.692;2024-03-23T05:47:15;100687.16;;;8.51;73.01
9110;BME280;4590;51.462;6.692;2024-03-23T05:49:42;100686.66;;;8.49;72.66
9110;BME280;4590;51.462;6.692;2024-03-23T05:52:10;100687.22;;;8.46;72.76
9110;BME280;4590;51.462;6.692;2024-03-23T05:54:36;100688.63;;;8.43;72.84
9110;BME280;4590;51.462;6.692;2024-03-23T05:57:02;100690.84;;;8.41;72.86
9110;BME280;4590;51.462;6.692;2024-03-23T05:59:27;100693.88;;;8.40;72.57
9110;BME280;4590;51.462;6.692;2024-03-23T06:01:54;100693.63;;;8.36;73.03
9110;BME280;4590;51.462;6.692;2024-03-23T06:04:20;100688.16;;;8.36;72.71
9110;BME280;4590;51.462;6.692;2024-03-23T06:06:47;100704.59;;;8.36;72.90
9110;BME280;4590;51.462;6.692;2024-03-23T06:09:13;100706.53;;;8.36;72.66
9110;BME280;4590;51.462;6.692;2024-03-23T06:11:38;100702.47;;;8.33;73.15
9110;BME280;4590;51.462;6.692;2024-03-23T06:14:03;100696.16;;;8.33;72.67
9110;BME280;4590;51.462;6.692;2024-03-23T06:16:29;100700.56;;;8.29;73.12
9110;BME280;4590;51.462;6.692;2024-03-23T06:18:55;100704.69;;;8.26;72.80
9110;BME280;4590;51.462;6.692;2024-03-23T06:21:21;100699.50;;;8.25;73.24
9110;BME280;4590;51.462;6.692;2024-03-23T06:23:51;100697.88;;;8.24;72.92
9110;BME280;4590;51.462;6.692;2024-03-23T06:26:18;100700.63;;;8.24;73.06
9110;BME280;4590;51.462;6.692;2024-03-23T06:28:43;100706.09;;;8.24;73.14
9110;BME280;4590;51.462;6.692;2024-03-23T06:31:09;100708.25;;;8.27;73.09
9110;BME280;4590;51.462;6.692;2024-03-23T06:33:35;100703.31;;;8.29;73.15
9110;BME280;4590;51.462;6.692;2024-03-23T06:36:00;100702.47;;;8.33;73.35
9110;BME280;4590;51.462;6.692;2024-03-23T06:38:25;100709.56;;;8.34;73.32
9110;BME280;4590;51.462;6.692;2024-03-23T06:40:51;100712.00;;;8.36;73.44
9110;BME280;4590;51.462;6.692;2024-03-23T06:43:20;100704.59;;;8.36;73.13
9110;BME280;4590;51.462;6.692;2024-03-23T06:45:53;100700.19;;;8.40;73.28
9110;BME280;4590;51.462;6.692;2024-03-23T06:48:19;100713.03;;;8.45;73.43
9110;BME280;4590;51.462;6.692;2024-03-23T06:50:45;100712.44;;;8.48;73.33
9110;BME280;4590;51.462;6.692;2024-03-23T06:53:12;100703.41;;;8.48;73.55
9110;BME280;4590;51.462;6.692;2024-03-23T06:55:37;100708.25;;;8.51;73.40
9110;BME280;4590;51.462;6.692;2024-03-23T06:58:02;100708.78;;;8.53;73.57
9110;BME280;4590;51.462;6.692;2024-03-23T07:00:28;100718.22;;;8.47;74.09
9110;BME280;4590;51.462;6.692;2024-03-23T07:02:54;100708.44;;;8.59;73.90
9110;BME280;4590;51.462;6.692;2024-03-23T07:05:19;100713.88;;;8.64;73.44
9110;BME280;4590;51.462;6.692;2024-03-23T07:07:44;100714.09;;;8.68;73.46
9110;BME280;4590;51.462;6.692;2024-03-23T07:10:09;100707.72;;;8.72;73.45
9110;BME280;4590;51.462;6.692;2024-03-23T07:12:35;100709.88;;;8.75;73.72
9110;BME280;4590;51.462;6.692;2024-03-23T07:15:00;100717.72;;;8.82;73.94
9110;BME280;4590;51.462;6.692;2024-03-23T07:17:25;100713.75;;;8.93;74.14
9110;BME280;4590;51.462;6.692;2024-03-23T07:19:50;100714.94;;;9.06;74.47
9110;BME280;4590;51.462;6.692;2024-03-23T07:22:16;100712.78;;;9.22;74.65
9110;BME280;4590;51.462;6.692;2024-03-23T07:24:41;100710.63;;;9.37;74.70
9110;BME280;4590;51.462;6.692;2024-03-23T07:27:06;100700.72;;;9.55;74.92
9110;BME280;4590;51.462;6.692;2024-03-23T07:29:35;100702.31;;;9.75;74.84
9110;BME280;4590;51.462;6.692;2024-03-23T07:32:02;100705.78;;;9.94;74.82
9110;BME280;4590;51.462;6.692;2024-03-23T07:34:27;100708.75;;;10.11;74.38
9110;BME280;4590;51.462;6.692;2024-03-23T07:36:52;100703.22;;;10.30;74.00
9110;BME280;4590;51.462;6.692;2024-03-23T07:39:18;100703.41;;;10.47;73.43
9110;BME280;4590;51.462;6.692;2024-03-23T07:41:46;100703.28;;;10.66;72.98
9110;BME280;4590;51.462;6.692;2024-03-23T07:44:11;100702.06;;;10.86;73.17
9110;BME280;4590;51.462;6.692;2024-03-23T07:46:37;100705.75;;;11.04;72.93
9110;BME280;4590;51.462;6.692;2024-03-23T07:49:04;100699.06;;;11.18;71.70
9110;BME280;4590;51.462;6.692;2024-03-23T07:51:29;100700.34;;;11.35;71.92
9110;BME280;4590;51.462;6.692;2024-03-23T07:53:55;100702.41;;;11.51;71.25
9110;BME280;4590;51.462;6.692;2024-03-23T07:56:20;100704.31;;;11.65;70.71
9110;BME280;4590;51.462;6.692;2024-03-23T07:58:46;100704.78;;;11.67;69.50
9110;BME280;4590;51.462;6.692;2024-03-23T08:01:14;100708.50;;;11.84;69.91
9110;BME280;4590;51.462;6.692;2024-03-23T08:03:41;100709.22;;;11.99;69.80
9110;BME280;4590;51.462;6.692;2024-03-23T08:06:17;100715.63;;;12.16;69.56
9110;BME280;4590;51.462;6.692;2024-03-23T08:08:46;100710.38;;;12.37;69.14
9110;BME280;4590;51.462;6.692;2024-03-23T08:11:11;100702.34;;;12.58;68.80
9110;BME280;4590;51.462;6.692;2024-03-23T08:13:39;100703.66;;;12.69;67.67
9110;BME280;4590;51.462;6.692;2024-03-23T08:16:05;100699.78;;;12.79;66.73
9110;BME280;4590;51.462;6.692;2024-03-23T08:18:30;100694.28;;;12.87;66.58
9110;BME280;4590;51.462;6.692;2024-03-23T08:20:56;100702.56;;;12.96;66.00
9110;BME280;4590;51.462;6.692;2024-03-23T08:23:30;100705.31;;;12.87;62.62
9110;BME280;4590;51.462;6.692;2024-03-23T08:25:58;100711.00;;;12.82;63.83
9110;BME280;4590;51.462;6.692;2024-03-23T08:28:24;100713.41;;;12.75;63.47
9110;BME280;4590;51.462;6.692;2024-03-23T08:30:49;100712.72;;;12.61;63.04
9110;BME280;4590;51.462;6.692;2024-03-23T08:33:15;100716.91;;;12.50;62.35
9110;BME280;4590;51.462;6.692;2024-03-23T08:35:41;100721.66;;;12.18;58.57
9110;BME280;4590;51.462;6.692;2024-03-23T08:38:06;100718.09;;;12.18;62.23
9110;BME280;4590;51.462;6.692;2024-03-23T08:40:31;100725.44;;;12.00;61.68
9110;BME280;4590;51.462;6.692;2024-03-23T08:42:58;100718.91;;;11.87;61.94
9110;BME280;4590;51.462;6.692;2024-03-23T08:45:26;100723.47;;;11.70;61.26
9110;BME280;4590;51.462;6.692;2024-03-23T08:47:52;100722.28;;;11.62;61.83
9110;BME280;4590;51.462;6.692;2024-03-23T08:50:17;100722.09;;;11.58;62.17
9110;BME280;4590;51.462;6.692;2024-03-23T08:52:43;100719.84;;;11.60;62.52
9110;BME280;4590;51.462;6.692;2024-03-23T08:55:08;100722.44;;;11.66;62.30
9110;BME280;4590;51.462;6.692;2024-03-23T08:57:35;100728.25;;;11.78;62.74
9110;BME280;4590;51.462;6.692;2024-03-23T09:00:00;100722.50;;;11.97;62.15
9110;BME280;4590;51.462;6.692;2024-03-23T09:02:25;100718.09;;;12.18;62.80
9110;BME280;4590;51.462;6.692;2024-03-23T09:04:50;100722.72;;;12.40;62.15
9110;BME280;4590;51.462;6.692;2024-03-23T09:07:16;100725.25;;;12.67;62.22
9110;BME280;4590;51.462;6.692;2024-03-23T09:09:41;100721.56;;;12.89;61.60
9110;BME280;4590;51.462;6.692;2024-03-23T09:12:06;100708.94;;;13.05;60.96
9110;BME280;4590;51.462;6.692;2024-03-23T09:14:33;100727.16;;;13.15;60.72
9110;BME280;4590;51.462;6.692;2024-03-23T09:16:59;100727.50;;;13.22;59.95
9110;BME280;4590;51.462;6.692;2024-03-23T09:19:27;100735.28;;;13.28;59.48
9110;BME280;4590;51.462;6.692;2024-03-23T09:21:53;100725.38;;;13.27;58.85
9110;BME280;4590;51.462;6.692;2024-03-23T09:24:18;100731.22;;;13.17;58.62
9110;BME280;4590;51.462;6.692;2024-03-23T09:26:43;100726.31;;;13.06;58.56
9110;BME280;4590;51.462;6.692;2024-03-23T09:29:08;100727.72;;;12.86;58.00
9110;BME280;4590;51.462;6.692;2024-03-23T09:31:34;100715.06;;;12.93;58.60
9110;BME280;4590;51.462;6.692;2024-03-23T09:33:59;100718.50;;;13.08;58.85
9110;BME280;4590;51.462;6.692;2024-03-23T09:36:25;100720.00;;;13.22;58.82
9110;BME280;4590;51.462;6.692;2024-03-23T09:38:50;100724.88;;;13.25;57.95
9110;BME280;4590;51.462;6.692;2024-03-23T09:41:16;100723.25;;;13.33;58.07
9110;BME280;4590;51.462;6.692;2024-03-23T09:43:41;100720.50;;;13.33;57.86
9110;BME280;4590;51.462;6.692;2024-03-23T09:46:07;100721.16;;;13.21;56.46
9110;BME280;4590;51.462;6.692;2024-03-23T09:48:33;100704.41;;;13.35;56.21
9110;BME280;4590;51.462;6.692;2024-03-23T09:50:58;100696.75;;;13.49;56.18
9110;BME280;4590;51.462;6.692;2024-03-23T09:53:24;100694.13;;;13.61;56.32
9110;BME280;4590;51.462;6.692;2024-03-23T09:55:50;100685.97;;;13.74;55.29
9110;BME280;4590;51.462;6.692;2024-03-23T09:58:17;100687.25;;;13.85;54.60
9110;BME280;4590;51.462;6.692;2024-03-23T10:00:43;100677.91;;;14.07;54.60
9110;BME280;4590;51.462;6.692;2024-03-23T10:03:09;100674.44;;;14.18;53.64
9110;BME280;4590;51.462;6.692;2024-03-23T10:05:36;100672.88;;;14.38;53.35
9110;BME280;4590;51.462;6.692;2024-03-23T10:10:39;100666.88;;;14.65;51.64
9110;BME280;4590;51.462;6.692;2024-03-23T10:13:04;100663.75;;;14.76;51.11
9110;BME280;4590;51.462;6.692;2024-03-23T10:15:29;100668.72;;;14.82;51.13
9110;BME280;4590;51.462;6.692;2024-03-23T10:18:06;100672.63;;;14.81;50.38
9110;BME280;4590;51.462;6.692;2024-03-23T10:20:42;100677.59;;;14.76;49.87
9110;BME280;4590;51.462;6.692;2024-03-23T10:23:15;100687.00;;;14.54;48.30
9110;BME280;4590;51.462;6.692;2024-03-23T10:25:41;100696.03;;;14.42;49.73
9110;BME280;4590;51.462;6.692;2024-03-23T10:28:06;100709.13;;;14.16;50.26
9110;BME280;4590;51.462;6.692;2024-03-23T10:30:33;100717.50;;;13.90;51.16
9110;BME280;4590;51.462;6.692;2024-03-23T10:33:08;100727.66;;;13.51;51.45
9110;BME280;4590;51.462;6.692;2024-03-23T10:35:34;100744.06;;;13.22;51.99
9110;BME280;4590;51.462;6.692;2024-03-23T10:38:00;100738.06;;;12.63;52.00
9110;BME280;4590;51.462;6.692;2024-03-23T10:40:26;100740.25;;;12.44;52.86
9110;BME280;4590;51.462;6.692;2024-03-23T10:42:53;100745.47;;;12.14;53.46
9110;BME280;4590;51.462;6.692;2024-03-23T10:45:22;100739.50;;;11.90;53.82
9110;BME280;4590;51.462;6.692;2024-03-23T10:47:49;100741.63;;;11.71;54.35
9110;BME280;4590;51.462;6.692;2024-03-23T10:50:14;100742.81;;;11.56;54.60
9110;BME280;4590;51.462;6.692;2024-03-23T10:52:41;100753.28;;;11.45;54.65
9110;BME280;4590;51.462;6.692;2024-03-23T10:55:10;100729.53;;;11.36;54.88
9110;BME280;4590;51.462;6.692;2024-03-23T10:57:43;100728.66;;;11.27;55.30
9110;BME280;4590;51.462;6.692;2024-03-23T11:00:10;100722.94;;;11.23;56.13
9110;BME280;4590;51.462;6.692;2024-03-23T11:02:36;100715.38;;;11.29;56.28
9110;BME280;4590;51.462;6.692;2024-03-23T11:05:01;100717.00;;;11.30;56.69
9110;BME280;4590;51.462;6.692;2024-03-23T11:09:52;100707.56;;;11.44;57.11
9110;BME280;4590;51.462;6.692;2024-03-23T11:14:50;100708.66;;;11.66;57.44
9110;BME280;4590;51.462;6.692;2024-03-23T11:17:23;100709.47;;;11.80;57.50
9110;BME280;4590;51.462;6.692;2024-03-23T11:20:07;100706.13;;;11.91;56.85
9110;BME280;4590;51.462;6.692;2024-03-23T11:22:46;100701.63;;;12.04;56.79
9110;BME280;4590;51.462;6.692;2024-03-23T11:27:55;100695.28;;;12.35;56.52
9110;BME280;4590;51.462;6.692;2024-03-23T11:30:26;100699.03;;;12.47;56.38
9110;BME280;4590;51.462;6.692;2024-03-23T11:32:54;100696.66;;;12.63;56.90
9110;BME280;4590;51.462;6.692;2024-03-23T11:35:34;100684.19;;;12.74;55.57
9110;BME280;4590;51.462;6.692;2024-03-23T11:38:13;100688.41;;;12.80;54.97
9110;BME280;4590;51.462;6.692;2024-03-23T11:40:49;100686.31;;;12.94;55.38
9110;BME280;4590;51.462;6.692;2024-03-23T11:43:20;100684.03;;;12.96;52.88
9110;BME280;4590;51.462;6.692;2024-03-23T11:45:48;100680.31;;;13.01;53.12
9110;BME280;4590;51.462;6.692;2024-03-23T11:48:16;100682.94;;;13.06;52.64
9110;BME280;4590;51.462;6.692;2024-03-23T11:50:44;100697.88;;;13.05;51.86
9110;BME280;4590;51.462;6.692;2024-03-23T11:55:53;100694.75;;;12.72;49.29
9110;BME280;4590;51.462;6.692;2024-03-23T11:58:20;100690.94;;;12.59;49.61
9110;BME280;4590;51.462;6.692;2024-03-23T12:03:16;100690.25;;;12.37;49.92
9110;BME280;4590;51.462;6.692;2024-03-23T12:05:41;100684.38;;;12.29;50.63
9110;BME280;4590;51.462;6.692;2024-03-23T12:08:23;100685.19;;;12.30;50.11
9110;BME280;4590;51.462;6.692;2024-03-23T12:11:05;100695.44;;;12.38;50.82
9110;BME280;4590;51.462;6.692;2024-03-23T12:13:31;100683.41;;;12.34;50.52
9110;BME280;4590;51.462;6.692;2024-03-23T12:16:20;100681.63;;;12.29;49.23
9110;BME280;4590;51.462;6.692;2024-03-23T12:18:49;100677.91;;;12.34;50.11
9110;BME280;4590;51.462;6.692;2024-03-23T12:21:16;100676.78;;;12.35;50.54
9110;BME280;4590;51.462;6.692;2024-03-23T12:23:42;100678.53;;;12.22;49.78
9110;BME280;4590;51.462;6.692;2024-03-23T12:26:09;100671.88;;;12.32;51.05
9110;BME280;4590;51.462;6.692;2024-03-23T12:28:35;100665.72;;;12.35;51.50
9110;BME280;4590;51.462;6.692;2024-03-23T12:31:00;100683.28;;;12.39;51.48
9110;BME280;4590;51.462;6.692;2024-03-23T12:33:26;100666.41;;;12.41;51.75
9110;BME280;4590;51.462;6.692;2024-03-23T12:35:51;100671.44;;;12.47;52.31
9110;BME280;4590;51.462;6.692;2024-03-23T12:38:17;100662.72;;;12.54;51.86
9110;BME280;4590;51.462;6.692;2024-03-23T12:40:46;100661.56;;;12.55;51.82
9110;BME280;4590;51.462;6.692;2024-03-23T12:43:13;100672.44;;;12.51;52.34
9110;BME280;4590;51.462;6.692;2024-03-23T12:45:38;100683.09;;;12.36;52.80
9110;BME280;4590;51.462;6.692;2024-03-23T12:48:03;100684.34;;;12.21;52.95
9110;BME280;4590;51.462;6.692;2024-03-23T12:50:28;100699.50;;;12.01;53.33
9110;BME280;4590;51.462;6.692;2024-03-23T12:52:54;100700.59;;;11.91;54.26
9110;BME280;4590;51.462;6.692;2024-03-23T12:55:19;100698.59;;;11.83;54.67
9110;BME280;4590;51.462;6.692;2024-03-23T12:57:47;100702.66;;;11.86;54.60
9110;BME280;4590;51.462;6.692;2024-03-23T13:00:13;100705.81;;;11.93;55.90
9110;BME280;4590;51.462;6.692;2024-03-23T13:02:40;100709.81;;;11.87;55.08
9110;BME280;4590;51.462;6.692;2024-03-23T13:05:06;100698.09;;;11.81;55.28
9110;BME280;4590;51.462;6.692;2024-03-23T13:07:33;100689.56;;;11.91;55.29
9110;BME280;4590;51.462;6.692;2024-03-23T13:09:59;100663.94;;;11.91;55.44
9110;BME280;4590;51.462;6.692;2024-03-23T13:12:25;100661.31;;;11.86;55.83
9110;BME280;4590;51.462;6.692;2024-03-23T13:14:50;100660.88;;;11.70;56.30
9110;BME280;4590;51.462;6.692;2024-03-23T13:17:15;100656.09;;;11.76;56.24
9110;BME280;4590;51.462;6.692;2024-03-23T13:19:41;100657.00;;;11.71;55.88
9110;BME280;4590;51.462;6.692;2024-03-23T13:22:06;100660.88;;;11.70;55.95
9110;BME280;4590;51.462;6.692;2024-03-23T13:24:32;100672.22;;;11.69;55.45
9110;BME280;4590;51.462;6.692;2024-03-23T13:26:57;100665.16;;;11.54;54.44
9110;BME280;4590;51.462;6.692;2024-03-23T13:29:23;100657.50;;;11.51;54.68
9110;BME280;4590;51.462;6.692;2024-03-23T13:31:50;100650.94;;;11.38;53.88
9110;BME280;4590;51.462;6.692;2024-03-23T13:34:17;100659.38;;;11.33;53.48
9110;BME280;4590;51.462;6.692;2024-03-23T13:36:43;100656.09;;;11.31;52.79
9110;BME280;4590;51.462;6.692;2024-03-23T13:39:09;100660.41;;;11.23;52.63
9110;BME280;4590;51.462;6.692;2024-03-23T13:41:42;100655.09;;;11.27;51.50
9110;BME280;4590;51.462;6.692;2024-03-23T13:44:09;100657.16;;;11.21;50.86
9110;BME280;4590;51.462;6.692;2024-03-23T13:46:39;100657.03;;;11.27;50.02
9110;BME280;4590;51.462;6.692;2024-03-23T13:49:05;100650.31;;;11.41;50.31
9110;BME280;4590;51.462;6.692;2024-03-23T13:51:31;100652.06;;;11.37;46.63
9110;BME280;4590;51.462;6.692;2024-03-23T13:53:57;100643.09;;;11.54;49.17
9110;BME280;4590;51.462;6.692;2024-03-23T13:56:23;100648.50;;;11.59;49.26
9110;BME280;4590;51.462;6.692;2024-03-23T13:58:48;100647.63;;;11.50;49.11
9110;BME280;4590;51.462;6.692;2024-03-23T14:01:15;100648.50;;;11.59;48.21
9110;BME280;4590;51.462;6.692;2024-03-23T14:03:41;100649.19;;;11.65;48.64
9110;BME280;4590;51.462;6.692;2024-03-23T14:06:07;100661.81;;;11.66;48.74
9110;BME280;4590;51.462;6.692;2024-03-23T14:08:33;100665.53;;;11.61;49.13
9110;BME280;4590;51.462;6.692;2024-03-23T14:11:00;100661.47;;;11.58;48.77
9110;BME280;4590;51.462;6.692;2024-03-23T14:13:27;100659.94;;;11.52;48.84
9110;BME280;4590;51.462;6.692;2024-03-23T14:15:55;100651.13;;;11.42;48.71
9110;BME280;4590;51.462;6.692;2024-03-23T14:18:21;100654.53;;;11.39;49.66
9110;BME280;4590;51.462;6.692;2024-03-23T14:20:48;100643.19;;;11.40;50.08
9110;BME280;4590;51.462;6.692;2024-03-23T14:23:13;100641.63;;;11.48;49.43
9110;BME280;4590;51.462;6.692;2024-03-23T14:25:39;100648.31;;;11.55;49.60
9110;BME280;4590;51.462;6.692;2024-03-23T14:28:04;100649.00;;;11.61;49.42
9110;BME280;4590;51.462;6.692;2024-03-23T14:30:29;100644.00;;;11.63;48.84
9110;BME280;4590;51.462;6.692;2024-03-23T14:32:56;100640.25;;;11.68;48.84
9110;BME280;4590;51.462;6.692;2024-03-23T14:35:22;100645.66;;;11.73;48.65
9110;BME280;4590;51.462;6.692;2024-03-23T14:37:47;100631.78;;;11.78;48.69
9110;BME280;4590;51.462;6.692;2024-03-23T14:40:12;100627.88;;;11.79;48.30
9110;BME280;4590;51.462;6.692;2024-03-23T14:42:38;100635.25;;;11.70;47.61
9110;BME280;4590;51.462;6.692;2024-03-23T14:45:03;100618.06;;;11.64;47.59
9110;BME280;4590;51.462;6.692;2024-03-23T14:47:29;100617.06;;;11.60;47.65
9110;BME280;4590;51.462;6.692;2024-03-23T14:49:54;100622.00;;;11.49;47.77
9110;BME280;4590;51.462;6.692;2024-03-23T14:52:20;100619.13;;;11.54;47.85
9110;BME280;4590;51.462;6.692;2024-03-23T14:54:46;100620.41;;;11.48;47.90
9110;BME280;4590;51.462;6.692;2024-03-23T14:57:11;100617.19;;;11.55;48.17
9110;BME280;4590;51.462;6.692;2024-03-23T14:59:37;100611.97;;;11.53;48.41
9110;BME280;4590;51.462;6.692;2024-03-23T15:02:06;100611.84;;;11.58;48.16
9110;BME280;4590;51.462;6.692;2024-03-23T15:04:31;100617.31;;;11.50;47.57
9110;BME280;4590;51.462;6.692;2024-03-23T15:06:57;100604.09;;;11.60;48.85
9110;BME280;4590;51.462;6.692;2024-03-23T15:09:23;100607.44;;;11.49;47.58
9110;BME280;4590;51.462;6.692;2024-03-23T15:11:48;100602.72;;;11.49;49.24
9110;BME280;4590;51.462;6.692;2024-03-23T15:14:15;100594.50;;;11.58;48.82
9110;BME280;4590;51.462;6.692;2024-03-23T15:16:41;100605.84;;;11.56;49.31
9110;BME280;4590;51.462;6.692;2024-03-23T15:19:10;100610.84;;;11.54;49.10
9110;BME280;4590;51.462;6.692;2024-03-23T15:21:36;100604.19;;;11.47;49.06
9110;BME280;4590;51.462;6.692;2024-03-23T15:24:01;100597.78;;;11.38;48.97
9110;BME280;4590;51.462;6.692;2024-03-23T15:26:26;100599.88;;;11.32;49.11
9110;BME280;4590;51.462;6.692;2024-03-23T15:28:51;100603.56;;;11.28;49.45
9110;BME280;4590;51.462;6.692;2024-03-23T15:31:23;100600.31;;;11.25;49.05
9110;BME280;4590;51.462;6.692;2024-03-23T15:33:49;100614.91;;;11.26;48.89
9110;BME280;4590;51.462;6.692;2024-03-23T15:36:14;100599.00;;;11.23;48.68
9110;BME280;4590;51.462;6.692;2024-03-23T15:38:41;100593.00;;;11.21;48.95
9110;BME280;4590;51.462;6.692;2024-03-23T15:41:06;100588.38;;;11.08;48.08
9110;BME280;4590;51.462;6.692;2024-03-23T15:43:33;100595.38;;;11.14;49.18
9110;BME280;4590;51.462;6.692;2024-03-23T15:46:01;100589.38;;;11.12;49.65
9110;BME280;4590;51.462;6.692;2024-03-23T15:48:30;100598.44;;;11.12;49.04
9110;BME280;4590;51.462;6.692;2024-03-23T15:51:03;100591.25;;;11.03;49.23
9110;BME280;4590;51.462;6.692;2024-03-23T15:53:31;100583.31;;;11.01;49.04
9110;BME280;4590;51.462;6.692;2024-03-23T15:56:01;100574.06;;;10.97;48.77
9110;BME280;4590;51.462;6.692;2024-03-23T15:58:28;100587.81;;;10.97;49.72
9110;BME280;4590;51.462;6.692;2024-03-23T16:03:25;100573.03;;;10.93;49.84
9110;BME280;4590;51.462;6.692;2024-03-23T16:05:56;100567.84;;;10.92;49.33
9110;BME280;4590;51.462;6.692;2024-03-23T16:08:23;100572.22;;;10.93;49.55
9110;BME280;4590;51.462;6.692;2024-03-23T16:10:48;100571.09;;;10.94;49.61
9110;BME280;4590;51.462;6.692;2024-03-23T16:13:14;100556.84;;;10.92;49.76
9110;BME280;4590;51.462;6.692;2024-03-23T16:15:39;100560.41;;;10.92;49.39
9110;BME280;4590;51.462;6.692;2024-03-23T16:18:05;100558.56;;;10.87;49.34
9110;BME280;4590;51.462;6.692;2024-03-23T16:20:30;100564.09;;;10.87;49.66
9110;BME280;4590;51.462;6.692;2024-03-23T16:22:58;100555.47;;;10.80;49.27
9110;BME280;4590;51.462;6.692;2024-03-23T16:25:23;100567.91;;;10.78;49.22
9110;BME280;4590;51.462;6.692;2024-03-23T16:27:49;100560.56;;;10.73;49.29
9110;BME280;4590;51.462;6.692;2024-03-23T16:30:14;100561.34;;;10.65;48.71
9110;BME280;4590;51.462;6.692;2024-03-23T16:32:40;100573.19;;;10.52;47.67
9110;BME280;4590;51.462;6.692;2024-03-23T16:35:07;100573.88;;;10.58;49.14
9110;BME280;4590;51.462;6.692;2024-03-23T16:37:35;100592.63;;;10.55;49.45
9110;BME280;4590;51.462;6.692;2024-03-23T16:40:00;100602.69;;;10.38;49.32
9110;BME280;4590;51.462;6.692;2024-03-23T16:42:27;100610.94;;;10.38;50.09
9110;BME280;4590;51.462;6.692;2024-03-23T16:44:53;100608.59;;;10.31;50.57
9110;BME280;4590;51.462;6.692;2024-03-23T16:47:20;100618.56;;;10.27;50.95
9110;BME280;4590;51.462;6.692;2024-03-23T16:49:45;100618.94;;;9.93;52.36
9110;BME280;4590;51.462;6.692;2024-03-23T16:52:10;100624.97;;;9.95;52.31
9110;BME280;4590;51.462;6.692;2024-03-23T16:54:35;100625.56;;;9.92;52.24
9110;BME280;4590;51.462;6.692;2024-03-23T16:57:02;100626.28;;;9.84;52.71
9110;BME280;4590;51.462;6.692;2024-03-23T16:59:28;100610.16;;;9.64;54.62
9110;BME280;4590;51.462;6.692;2024-03-23T17:01:53;100620.03;;;9.65;54.40
9110;BME280;4590;51.462;6.692;2024-03-23T17:04:21;100614.75;;;9.55;54.91
9110;BME280;4590;51.462;6.692;2024-03-23T17:06:47;100605.56;;;9.45;56.03
9110;BME280;4590;51.462;6.692;2024-03-23T17:09:12;100608.13;;;9.42;55.96
9110;BME280;4590;51.462;6.692;2024-03-23T17:11:38;100603.00;;;9.35;56.98
9110;BME280;4590;51.462;6.692;2024-03-23T17:14:03;100603.00;;;9.35;57.39
9110;BME280;4590;51.462;6.692;2024-03-23T17:16:29;100591.81;;;9.32;57.24
9110;BME280;4590;51.462;6.692;2024-03-23T17:18:57;100597.00;;;9.33;57.29
9110;BME280;4590;51.462;6.692;2024-03-23T17:21:23;100612.34;;;9.34;57.44
9110;BME280;4590;51.462;6.692;2024-03-23T17:23:48;100595.38;;;9.32;57.52
9110;BME280;4590;51.462;6.692;2024-03-23T17:26:15;100596.88;;;9.25;58.96
9110;BME280;4590;51.462;6.692;2024-03-23T17:28:40;100601.44;;;9.29;57.72
9110;BME280;4590;51.462;6.692;2024-03-23T17:31:05;100594.66;;;9.27;57.92
9110;BME280;4590;51.462;6.692;2024-03-23T17:33:31;100596.38;;;9.23;57.84
9110;BME280;4590;51.462;6.692;2024-03-23T17:35:56;100592.88;;;9.17;57.64
9110;BME280;4590;51.462;6.692;2024-03-23T17:38:21;100597.97;;;9.10;57.63
9110;BME280;4590;51.462;6.692;2024-03-23T17:40:47;100596.91;;;9.06;57.47
9110;BME280;4590;51.462;6.692;2024-03-23T17:43:13;100592.44;;;8.96;57.46
9110;BME280;4590;51.462;6.692;2024-03-23T17:45:38;100587.31;;;8.90;57.18
9110;BME280;4590;51.462;6.692;2024-03-23T17:48:05;100588.66;;;8.73;58.70
9110;BME280;4590;51.462;6.692;2024-03-23T17:50:30;100585.84;;;8.78;57.71
9110;BME280;4590;51.462;6.692;2024-03-23T17:52:56;100585.63;;;8.75;57.84
9110;BME280;4590;51.462;6.692;2024-03-23T17:55:21;100579.59;;;8.73;57.79
9110;BME280;4590;51.462;6.692;2024-03-23T17:57:47;100573.59;;;8.71;58.25
9110;BME280;4590;51.462;6.692;2024-03-23T18:00:14;100576.63;;;8.69;58.18
9110;BME280;4590;51.462;6.692;2024-03-23T18:02:40;100569.22;;;8.70;58.26
9110;BME280;4590;51.462;6.692;2024-03-23T18:05:06;100583.53;;;8.67;58.20
9110;BME280;4590;51.462;6.692;2024-03-23T18:07:32;100579.97;;;8.66;58.42
9110;BME280;4590;51.462;6.692;2024-03-23T18:09:58;100574.50;;;8.66;58.35
9110;BME280;4590;51.462;6.692;2024-03-23T18:12:24;100581.69;;;8.62;58.53
9110;BME280;4590;51.462;6.692;2024-03-23T18:14:50;100578.22;;;8.57;58.40
9110;BME280;4590;51.462;6.692;2024-03-23T18:17:15;100581.84;;;8.52;58.15
9110;BME280;4590;51.462;6.692;2024-03-23T18:19:40;100586.00;;;8.50;58.42
9110;BME280;4590;51.462;6.692;2024-03-23T18:22:07;100578.06;;;8.48;58.52
9110;BME280;4590;51.462;6.692;2024-03-23T18:24:34;100575.81;;;8.50;58.62
9110;BME280;4590;51.462;6.692;2024-03-23T18:27:00;100584.06;;;8.50;58.69
9110;BME280;4590;51.462;6.692;2024-03-23T18:29:25;100587.69;;;8.46;58.94
9110;BME280;4590;51.462;6.692;2024-03-23T18:31:51;100582.50;;;8.44;58.89
9110;BME280;4590;51.462;6.692;2024-03-23T18:34:16;100582.00;;;8.42;58.89
9110;BME280;4590;51.462;6.692;2024-03-23T18:36:42;100579.00;;;8.38;58.81
9110;BME280;4590;51.462;6.692;2024-03-23T18:39:07;100577.38;;;8.37;58.75
9110;BME280;4590;51.462;6.692;2024-03-23T18:41:33;100577.69;;;8.36;59.10
9110;BME280;4590;51.462;6.692;2024-03-23T18:43:59;100572.19;;;8.36;59.02
9110;BME280;4590;51.462;6.692;2024-03-23T18:46:25;100573.81;;;8.37;59.08
9110;BME280;4590;51.462;6.692;2024-03-23T18:48:51;100568.34;;;8.37;59.24
9110;BME280;4590;51.462;6.692;2024-03-23T18:51:16;100577.38;;;8.37;59.16
9110;BME280;4590;51.462;6.692;2024-03-23T18:53:42;100577.69;;;8.36;59.01
9110;BME280;4590;51.462;6.692;2024-03-23T18:56:07;100565.91;;;8.35;59.01
9110;BME280;4590;51.462;6.692;2024-03-23T18:58:32;100567.81;;;8.35;58.99